Time;durP1;ratioP1;P1;durP2;ratioP2;P2;SDS_P1;SDS_P2;PMS_P1;PMS_P2;Temp;Humidity;BMP_temperature;BMP_pressure;BME280_temperature;BME280_humidity;BME280_pressure;Samples;Min_cycle;Max_cycle;Signal;HPM_P1;HPM_P2
2021/03/08 00:03:13;;;;;;;21.27;3.30;;;;;;;1.00;75.09;102060.78;10186489;28;20049;-70
2021/03/08 00:08:10;;;;;;;14.40;2.55;;;;;;;0.86;73.88;102065.44;10214627;28;20493;-70
2021/03/08 00:13:06;;;;;;;15.52;2.35;;;;;;;0.79;74.17;102070.03;10192498;28;20076;-69
2021/03/08 00:18:03;;;;;;;15.40;2.90;;;;;;;0.88;74.27;102074.09;10211454;28;20772;-70
2021/03/08 00:22:59;;;;;;;13.50;2.75;;;;;;;0.80;74.23;102087.84;10203633;28;20041;-69
2021/03/08 00:27:56;;;;;;;17.52;3.40;;;;;;;0.74;74.20;102099.50;10219622;28;20045;-69
2021/03/08 00:32:52;;;;;;;10.50;2.28;;;;;;;0.66;74.16;102102.47;10207282;28;20084;-70
2021/03/08 00:37:48;;;;;;;17.17;3.05;;;;;;;0.63;74.22;102090.25;10216629;28;20492;-70
2021/03/08 00:42:44;;;;;;;15.68;2.03;;;;;;;0.51;74.56;102106.28;10199075;28;20049;-69
2021/03/08 00:47:40;;;;;;;13.98;2.38;;;;;;;0.44;74.39;102110.84;10211560;28;20054;-69
2021/03/08 00:52:37;;;;;;;12.77;2.67;;;;;;;0.38;74.50;102106.34;10207415;28;20085;-69
2021/03/08 00:57:33;;;;;;;9.32;2.17;;;;;;;0.35;74.50;102102.22;10215423;28;20061;-69
2021/03/08 01:02:29;;;;;;;9.13;1.90;;;;;;;0.37;74.39;102100.16;10203347;28;20064;-69
2021/03/08 01:07:25;;;;;;;12.48;2.47;;;;;;;0.32;74.62;102107.22;10206956;28;20121;-68
2021/03/08 01:12:21;;;;;;;11.05;2.17;;;;;;;0.27;74.01;102094.41;10201701;28;20096;-68
2021/03/08 01:17:17;;;;;;;12.43;2.58;;;;;;;0.27;74.44;102101.66;10202772;28;20057;-69
2021/03/08 01:22:13;;;;;;;12.27;2.55;;;;;;;0.27;74.07;102101.66;10208999;28;20046;-69
2021/03/08 01:27:09;;;;;;;8.40;1.85;;;;;;;0.14;74.14;102095.31;10215127;28;20053;-69
2021/03/08 01:32:06;;;;;;;7.97;2.05;;;;;;;0.06;74.39;102098.22;10199031;28;20045;-69
2021/03/08 01:37:02;;;;;;;16.92;2.70;;;;;;;0.02;74.77;102091.63;10206761;28;20709;-69
2021/03/08 01:41:58;;;;;;;12.43;1.98;;;;;;;0.03;74.43;102098.66;10200267;28;20091;-69
2021/03/08 01:46:55;;;;;;;11.70;2.10;;;;;;;-0.07;74.18;102098.28;10207233;28;20136;-69
2021/03/08 01:51:51;;;;;;;10.38;1.90;;;;;;;-0.11;74.53;102097.88;10205964;28;20056;-69
2021/03/08 01:56:47;;;;;;;7.63;2.55;;;;;;;-0.09;74.20;102089.63;10200466;28;20046;-68
2021/03/08 02:01:43;;;;;;;7.40;2.05;;;;;;;-0.14;74.32;102092.09;10210164;28;20496;-68
2021/03/08 02:06:39;;;;;;;10.85;2.15;;;;;;;-0.14;74.07;102087.56;11119842;23;20044;-70
2021/03/08 02:11:39;;;;;;;10.55;1.77;;;;;;;-0.18;74.07;102090.91;10241115;28;20502;-68
2021/03/08 02:16:49;;;;;;;9.90;1.60;;;;;;;-0.23;73.83;102096.91;10232614;28;20174;-67
2021/03/08 02:22:04;;;;;;;9.43;1.83;;;;;;;-0.30;74.01;102094.25;10219475;28;20068;-68
2021/03/08 02:27:05;;;;;;;;;;;;;;;-0.33;74.00;102102.69;10216090;28;20103;-68
2021/03/08 02:32:05;;;;;;;14.40;1.52;;;;;;;-0.36;73.87;102105.81;10221046;28;19921;-67
2021/03/08 02:37:15;;;;;;;8.23;1.80;;;;;;;-0.35;73.90;102101.25;10231301;28;20045;-67
2021/03/08 02:42:17;;;;;;;6.65;1.40;;;;;;;-0.41;73.56;102108.31;10228478;28;20057;-68
2021/03/08 02:47:18;;;;;;;9.47;1.83;;;;;;;-0.40;73.54;102114.50;10239800;28;20049;-67
2021/03/08 02:52:18;;;;;;;20.35;3.55;;;;;;;-0.48;73.94;102112.88;10246303;28;20041;-69
2021/03/08 02:57:17;;;;;;;8.43;1.50;;;;;;;-0.50;73.20;102114.94;10235306;28;20103;-68
2021/03/08 03:02:13;;;;;;;5.63;1.25;;;;;;;-0.54;73.34;102119.09;10235596;28;20053;-68
2021/03/08 03:07:11;;;;;;;10.23;2.05;;;;;;;-0.53;73.66;102123.44;10232388;28;20076;-67
2021/03/08 03:12:09;;;;;;;8.40;1.98;;;;;;;-0.64;73.55;102123.03;10224634;28;20127;-68
2021/03/08 03:17:08;;;;;;;7.32;1.77;;;;;;;-0.76;73.69;102127.38;10236520;28;20100;-69
2021/03/08 03:22:08;;;;;;;6.65;1.42;;;;;;;-0.76;73.78;102126.56;10220493;28;20151;-67
2021/03/08 03:27:05;;;;;;;6.45;1.30;;;;;;;-0.79;73.98;102133.19;10231489;28;20065;-66
2021/03/08 03:32:02;;;;;;;8.48;1.70;;;;;;;-0.76;73.48;102130.06;10235453;28;20102;-69
2021/03/08 03:37:00;;;;;;;9.63;1.75;;;;;;;-0.80;73.43;102142.25;10227115;28;20104;-69
2021/03/08 03:41:56;;;;;;;7.10;1.20;;;;;;;-0.87;73.77;102130.69;10226971;28;20507;-69
2021/03/08 03:46:52;;;;;;;5.90;1.15;;;;;;;-0.90;73.61;102141.84;10238318;28;20077;-70
2021/03/08 03:51:48;;;;;;;8.40;1.63;;;;;;;-0.90;73.97;102149.91;10243223;28;20053;-69
2021/03/08 03:56:58;;;;;;;5.53;1.50;;;;;;;-0.86;73.62;102153.81;10253444;28;20057;-69
2021/03/08 04:01:58;;;;;;;10.80;1.88;;;;;;;-0.90;73.17;102164.16;10226735;28;20053;-69
2021/03/08 04:06:57;;;;;;;8.48;1.45;;;;;;;-0.93;73.82;102166.41;10229519;28;20801;-69
2021/03/08 04:11:56;;;;;;;8.13;1.65;;;;;;;-1.00;73.33;102168.25;10225660;28;22573;-69
2021/03/08 04:16:58;;;;;;;8.70;1.35;;;;;;;-1.08;73.73;102167.44;10243979;28;20049;-70
2021/03/08 04:21:59;;;;;;;3.13;0.90;;;;;;;-1.07;73.40;102177.16;10232256;28;20136;-69
2021/03/08 04:26:57;;;;;;;6.95;1.52;;;;;;;-1.13;73.46;102179.81;10226943;28;20073;-69
2021/03/08 04:31:53;;;;;;;12.27;1.55;;;;;;;-1.16;73.33;102175.69;10230980;28;20131;-69
2021/03/08 04:36:49;;;;;;;5.82;1.33;;;;;;;-1.20;73.65;102190.53;10236660;28;20700;-69
2021/03/08 04:41:46;;;;;;;6.00;1.15;;;;;;;-1.27;73.83;102184.34;10230419;28;20053;-70
2021/03/08 04:46:42;;;;;;;9.27;1.83;;;;;;;-1.22;73.55;102187.22;10227886;28;20182;-70
2021/03/08 04:51:40;;;;;;;9.57;1.58;;;;;;;-1.26;73.14;102188.66;10231177;28;20123;-70
2021/03/08 04:56:38;;;;;;;7.78;1.35;;;;;;;-1.31;73.79;102193.81;10221559;28;20099;-70
2021/03/08 05:01:34;;;;;;;10.80;1.58;;;;;;;-1.33;73.53;102195.88;10241095;28;20072;-68
2021/03/08 05:06:37;;;;;;;6.53;1.58;;;;;;;-1.33;73.22;102206.59;10231562;28;20056;-71
2021/03/08 05:11:38;;;;;;;10.77;1.80;;;;;;;-1.36;73.69;102201.66;10238371;28;20057;-69
2021/03/08 05:16:39;;;;;;;8.73;1.73;;;;;;;-1.37;73.25;102216.94;10224255;28;20797;-68
2021/03/08 05:21:35;;;;;;;9.43;1.63;;;;;;;-1.37;73.57;102216.09;10230780;28;20068;-68
2021/03/08 05:26:31;;;;;;;4.70;1.52;;;;;;;-1.44;74.17;102213.38;10227970;28;20470;-68
2021/03/08 05:31:31;;;;;;;6.57;1.50;;;;;;;-1.54;73.63;102211.06;10222501;28;20060;-67
2021/03/08 05:36:28;;;;;;;7.07;1.98;;;;;;;-1.53;73.97;102223.47;10230244;28;20056;-66
2021/03/08 05:41:25;;;;;;;9.43;1.80;;;;;;;-1.58;74.56;102225.94;10225387;28;20071;-68
2021/03/08 05:46:36;;;;;;;5.55;1.42;;;;;;;-1.49;74.10;102230.06;10226939;28;20045;-67
2021/03/08 05:52:10;;;;;;;5.10;1.65;;;;;;;-1.59;74.15;102229.63;10228266;28;20045;-67
2021/03/08 05:57:25;;;;;;;10.57;1.52;;;;;;;-1.56;74.31;102229.22;10228622;28;20049;-66
2021/03/08 06:02:30;;;;;;;8.68;1.63;;;;;;;-1.50;74.01;102244.53;10226079;28;20051;-67
2021/03/08 06:08:19;;;;;;;14.27;1.80;;;;;;;-1.44;73.81;102248.25;10225504;28;20051;-67
2021/03/08 06:13:19;;;;;;;9.23;1.80;;;;;;;-1.35;74.18;102251.59;10226099;28;20590;-70
2021/03/08 06:18:17;;;;;;;5.95;1.35;;;;;;;-1.34;73.98;102253.25;10213478;28;20053;-68
2021/03/08 06:23:15;;;;;;;7.72;1.50;;;;;;;-1.32;74.13;102267.31;10230133;28;20057;-67
2021/03/08 06:28:14;;;;;;;8.25;1.27;;;;;;;-1.27;74.17;102280.94;10229113;28;20674;-64
2021/03/08 06:33:11;;;;;;;10.05;1.70;;;;;;;-1.30;73.72;102292.91;10230841;28;20132;-64
2021/03/08 06:38:08;;;;;;;5.18;1.35;;;;;;;-1.25;74.13;102294.16;10225363;28;20551;-65
2021/03/08 06:43:04;;;;;;;8.65;1.13;;;;;;;-1.25;74.66;102300.38;10231583;28;20057;-65
2021/03/08 06:48:00;;;;;;;10.75;1.75;;;;;;;-1.31;74.50;102301.97;10220751;28;20045;-67
2021/03/08 06:52:57;;;;;;;13.05;2.28;;;;;;;-1.29;74.69;102315.22;10218006;28;20085;-66
2021/03/08 06:57:53;;;;;;;9.75;1.65;;;;;;;-1.29;74.89;102315.22;10223609;28;20641;-66
2021/03/08 07:02:49;;;;;;;10.80;1.42;;;;;;;-1.30;74.98;102318.91;10226651;28;20045;-66
2021/03/08 07:07:59;;;;;;;9.73;1.63;;;;;;;-1.23;74.79;102329.66;10219057;28;20052;-65
2021/03/08 07:12:56;;;;;;;8.13;1.60;;;;;;;-1.21;75.21;102331.13;10222916;28;20092;-65
2021/03/08 07:17:52;;;;;;;11.00;1.50;;;;;;;-1.16;75.46;102336.75;10223909;28;20521;-65
2021/03/08 07:22:51;;;;;;;6.88;1.33;;;;;;;-1.06;75.33;102344.41;10228556;28;20057;-66
2021/03/08 07:27:57;;;;;;;8.20;3.58;;;;;;;-0.97;74.84;102342.41;10232708;28;20049;-64
2021/03/08 07:32:56;;;;;;;9.43;1.48;;;;;;;-0.89;75.32;102342.22;10236402;28;20102;-67
2021/03/08 07:37:53;;;;;;;7.28;1.42;;;;;;;-0.85;74.79;102338.91;10243404;28;20053;-65
2021/03/08 07:42:50;;;;;;;8.75;1.80;;;;;;;-0.70;74.90;102352.16;10241144;28;20525;-65
2021/03/08 07:47:47;;;;;;;5.30;1.60;;;;;;;-0.71;75.13;102349.72;10241843;28;20081;-67
2021/03/08 07:52:43;;;;;;;11.95;1.80;;;;;;;-0.67;75.10;102357.16;10243861;28;20045;-65
2021/03/08 07:57:40;;;;;;;5.32;1.83;;;;;;;-0.58;75.13;102348.91;10237420;28;20047;-67
2021/03/08 08:02:36;;;;;;;9.85;1.50;;;;;;;-0.48;75.12;102343.97;10230762;28;20108;-64
2021/03/08 08:07:38;;;;;;;9.10;1.85;;;;;;;-0.32;75.06;102348.13;10235766;28;20053;-65
2021/03/08 08:12:36;;;;;;;5.80;1.33;;;;;;;-0.26;74.54;102337.38;10242276;28;20045;-67
2021/03/08 08:17:35;;;;;;;10.20;1.40;;;;;;;-0.04;73.67;102340.69;10235943;28;20053;-66
2021/03/08 08:22:34;;;;;;;8.57;1.30;;;;;;;0.13;73.50;102351.84;10242835;28;20502;-67
2021/03/08 08:27:32;;;;;;;7.85;1.73;;;;;;;0.32;73.17;102343.97;10233972;28;20512;-67
2021/03/08 08:32:48;;;;;;;6.47;1.60;;;;;;;0.50;72.73;102346.84;10239101;28;20049;-65
2021/03/08 08:38:07;;;;;;;10.13;1.35;;;;;;;0.63;71.75;102346.81;10242855;28;20061;-66
2021/03/08 08:43:16;;;;;;;9.60;1.80;;;;;;;0.74;72.43;102356.13;10219620;28;20714;-67
2021/03/08 08:48:12;;;;;;;12.57;1.70;;;;;;;0.87;71.68;102366.00;10233525;28;20060;-67
2021/03/08 08:53:09;;;;;;;12.82;2.47;;;;;;;0.96;71.40;102356.63;10228468;28;20041;-67
2021/03/08 08:58:25;;;;;;;8.60;1.80;;;;;;;1.19;70.77;102360.69;10230857;28;20499;-66
2021/03/08 09:04:00;;;;;;;8.68;1.75;;;;;;;1.44;69.75;102348.13;10229396;28;20053;-68
2021/03/08 09:08:57;;;;;;;7.10;1.70;;;;;;;1.64;67.90;102349.84;10233827;28;20114;-66
2021/03/08 09:14:34;;;;;;;6.85;1.60;;;;;;;1.92;66.63;102348.59;10222119;28;21068;-66
2021/03/08 09:19:30;;;;;;;6.38;1.23;;;;;;;2.14;63.35;102355.28;10238448;28;20057;-67
2021/03/08 09:24:32;;;;;;;4.22;1.02;;;;;;;2.42;60.44;102359.38;10230643;28;20049;-68
2021/03/08 09:29:29;;;;;;;5.93;1.00;;;;;;;2.68;62.59;102352.88;10244680;28;20096;-68
2021/03/08 09:34:25;;;;;;;12.70;1.10;;;;;;;2.70;61.08;102357.00;10253237;28;20049;-66
2021/03/08 09:39:22;;;;;;;4.53;1.35;;;;;;;2.74;59.18;102355.50;10255950;28;20053;-68
2021/03/08 09:44:18;;;;;;;5.82;1.27;;;;;;;2.88;58.20;102358.06;10256393;28;20052;-68
2021/03/08 09:49:14;;;;;;;9.80;1.60;;;;;;;3.03;56.67;102355.78;10256627;28;20071;-66
2021/03/08 09:54:10;;;;;;;5.95;1.13;;;;;;;3.37;55.94;102356.19;10247875;28;20051;-68
2021/03/08 09:59:09;;;;;;;8.25;1.20;;;;;;;3.71;54.86;102361.91;10259757;28;20136;-68
2021/03/08 10:04:06;;;;;;;4.25;1.00;;;;;;;3.91;53.87;102365.16;10255296;28;20049;-67
2021/03/08 10:09:19;;;;;;;6.70;1.52;;;;;;;4.11;52.27;102366.72;10239633;28;20041;-67
2021/03/08 10:14:29;;;;;;;6.22;0.75;;;;;;;4.57;52.68;102365.03;10249158;28;20046;-68
2021/03/08 10:19:26;;;;;;;4.15;0.60;;;;;;;5.03;48.64;102357.91;10246773;28;20055;-68
2021/03/08 10:24:40;;;;;;;4.57;0.68;;;;;;;5.50;47.87;102357.72;10257938;28;20456;-69
2021/03/08 10:29:39;;;;;;;5.05;0.80;;;;;;;5.56;45.92;102351.31;10245450;28;20045;-69
2021/03/08 10:34:37;;;;;;;3.08;0.80;;;;;;;5.38;42.60;102363.19;10249221;28;20045;-66
2021/03/08 10:39:49;;;;;;;5.30;1.00;;;;;;;5.45;43.48;102360.34;10253702;28;20052;-67
2021/03/08 10:44:46;;;;;;;4.35;0.70;;;;;;;5.22;41.79;102361.25;10241953;28;20063;-69
2021/03/08 10:49:50;;;;;;;3.92;0.88;;;;;;;5.03;38.65;102357.91;10243571;28;20561;-66
2021/03/08 10:54:47;;;;;;;2.67;0.60;;;;;;;5.13;36.71;102374.38;10245764;28;20057;-67
2021/03/08 10:59:51;;;;;;;2.30;0.55;;;;;;;5.43;37.88;102363.31;10246018;28;20080;-67
2021/03/08 11:05:10;;;;;;;2.35;0.70;;;;;;;6.02;39.43;102364.88;10238634;28;20049;-66
2021/03/08 11:10:07;;;;;;;4.30;0.60;;;;;;;6.07;36.40;102363.06;10223086;28;20053;-67
2021/03/08 11:15:04;;;;;;;5.78;0.93;;;;;;;6.83;39.98;102359.00;10225270;28;20392;-67
2021/03/08 11:20:09;;;;;;;4.35;0.63;;;;;;;7.08;35.02;102350.34;10227929;28;20154;-68
2021/03/08 11:25:06;;;;;;;3.72;1.02;;;;;;;6.74;33.04;102351.28;10221471;28;20053;-65
2021/03/08 11:30:11;;;;;;;2.88;0.90;;;;;;;6.79;41.87;102347.78;10223232;28;20044;-68
2021/03/08 11:35:25;;;;;;;3.20;0.70;;;;;;;6.88;33.88;102345.47;10219372;28;20049;-65
2021/03/08 11:40:23;;;;;;;1.90;0.73;;;;;;;7.04;32.36;102343.75;10170930;28;20046;-66
2021/03/08 11:45:20;;;;;;;4.72;1.35;;;;;;;7.46;33.91;102341.22;10184665;28;20046;-66
2021/03/08 11:50:16;;;;;;;2.42;0.73;;;;;;;8.01;38.50;102341.97;10169272;28;20556;-68
2021/03/08 11:55:13;;;;;;;3.75;1.20;;;;;;;8.35;40.80;102336.19;10186217;28;20495;-67
2021/03/08 12:00:10;;;;;;;2.60;0.70;;;;;;;8.56;41.22;102327.09;10187636;28;20065;-66
2021/03/08 12:05:07;;;;;;;3.42;1.30;;;;;;;8.56;33.68;102327.09;10187754;28;20053;-67
2021/03/08 12:10:05;;;;;;;5.97;1.33;;;;;;;8.61;27.36;102318.13;10189562;28;20046;-66
2021/03/08 12:15:04;;;;;;;4.40;1.48;;;;;;;8.91;32.41;102316.59;10193119;28;20058;-67
2021/03/08 12:20:00;;;;;;;7.07;2.13;;;;;;;9.93;33.00;102315.94;10224215;28;20450;-66
2021/03/08 12:24:57;;;;;;;4.80;1.35;;;;;;;10.40;37.47;102310.16;10206831;28;20507;-66
2021/03/08 12:29:54;;;;;;;6.65;1.30;;;;;;;11.11;32.05;102303.53;10189637;28;20057;-66
2021/03/08 12:34:50;;;;;;;6.32;1.40;;;;;;;11.54;26.38;102292.84;10200783;28;20448;-66
2021/03/08 12:39:46;;;;;;;2.67;0.80;;;;;;;11.91;26.43;102293.41;10197402;28;20046;-67
2021/03/08 12:44:42;;;;;;;2.47;0.73;;;;;;;12.72;25.10;102286.22;10186479;28;20046;-67
2021/03/08 12:49:38;;;;;;;5.63;1.15;;;;;;;13.47;29.12;102281.88;10196965;28;20046;-66
2021/03/08 12:54:35;;;;;;;5.10;1.00;;;;;;;14.10;26.34;102286.81;10197318;28;20050;-67
2021/03/08 12:59:33;;;;;;;4.07;0.70;;;;;;;14.83;25.61;102273.28;10199129;28;20129;-66
2021/03/08 13:04:29;;;;;;;4.47;0.90;;;;;;;15.08;20.97;102265.56;10199304;28;20415;-68
2021/03/08 13:09:25;;;;;;;3.70;0.90;;;;;;;14.91;20.64;102267.03;10203060;28;20450;-66
2021/03/08 13:14:21;;;;;;;4.05;0.80;;;;;;;16.03;22.77;102262.66;10197418;28;20491;-66
2021/03/08 13:19:17;;;;;;;2.13;0.55;;;;;;;15.76;19.96;102258.97;10196766;28;20130;-65
2021/03/08 13:24:13;;;;;;;2.50;0.45;;;;;;;16.08;22.08;102248.75;10197662;28;20602;-68
2021/03/08 13:29:09;;;;;;;3.08;0.90;;;;;;;16.30;23.34;102244.28;10190869;28;20077;-66
2021/03/08 13:34:05;;;;;;;2.83;0.80;;;;;;;16.86;19.71;102239.88;10190201;28;20049;-66
2021/03/08 13:39:01;;;;;;;3.20;0.60;;;;;;;16.71;18.12;102234.78;10193103;28;20042;-66
2021/03/08 13:43:58;;;;;;;5.95;0.73;;;;;;;16.34;18.72;102234.22;10194076;28;20092;-66
2021/03/08 13:48:54;;;;;;;3.47;0.80;;;;;;;15.77;18.46;102237.72;10195056;28;20099;-66
2021/03/08 13:53:50;;;;;;;1.55;0.40;;;;;;;15.99;18.81;102231.34;10194507;28;20052;-66
2021/03/08 13:58:46;;;;;;;1.92;0.50;;;;;;;15.72;17.71;102232.34;10197531;28;20133;-66
2021/03/08 14:03:44;;;;;;;2.35;0.43;;;;;;;15.83;19.57;102230.09;10190863;28;20057;-65
2021/03/08 14:08:41;;;;;;;5.97;0.70;;;;;;;15.96;18.33;102229.19;10190896;28;20046;-65
2021/03/08 14:13:37;;;;;;;3.35;0.68;;;;;;;15.78;17.54;102231.88;10192948;28;20084;-66
2021/03/08 14:18:33;;;;;;;4.68;0.75;;;;;;;15.16;18.19;102231.78;10200219;28;20061;-66
2021/03/08 14:23:30;;;;;;;3.95;0.77;;;;;;;15.30;18.92;102227.00;10186577;28;20534;-67
2021/03/08 14:28:26;;;;;;;3.67;0.60;;;;;;;14.79;19.30;102224.66;10182906;28;20100;-66
2021/03/08 14:33:22;;;;;;;2.85;0.70;;;;;;;14.25;19.15;102216.09;10185929;28;20069;-65
2021/03/08 14:38:18;;;;;;;1.60;0.50;;;;;;;14.09;18.74;102224.69;10190474;28;20042;-65
2021/03/08 14:43:15;;;;;;;2.92;0.73;;;;;;;14.00;20.31;102215.50;10190669;28;20045;-66
2021/03/08 14:48:11;;;;;;;3.25;0.60;;;;;;;13.84;19.50;102211.41;10192796;28;20579;-63
2021/03/08 14:53:08;;;;;;;1.80;0.90;;;;;;;13.05;19.56;102212.19;10184285;28;20095;-66
2021/03/08 14:58:04;;;;;;;3.35;0.60;;;;;;;12.97;19.87;102210.09;10187278;28;20074;-64
2021/03/08 15:03:00;;;;;;;6.65;0.80;;;;;;;12.48;20.03;102216.81;10176994;28;20617;-66
2021/03/08 15:07:56;;;;;;;3.63;0.60;;;;;;;12.05;20.59;102216.78;10182333;28;20112;-70
2021/03/08 15:13:02;;;;;;;4.60;0.70;;;;;;;12.19;21.45;102218.53;10194579;28;20050;-68
2021/03/08 15:17:58;;;;;;;2.63;0.68;;;;;;;12.17;20.92;102208.97;10202337;28;20391;-66
2021/03/08 15:22:55;;;;;;;3.25;0.80;;;;;;;12.07;21.33;102201.69;10172062;28;20057;-65
2021/03/08 15:27:51;;;;;;;6.60;1.00;;;;;;;11.12;21.22;102206.66;10178842;28;20687;-66
2021/03/08 15:32:47;;;;;;;3.42;0.80;;;;;;;11.30;21.61;102207.88;10183850;28;20460;-69
2021/03/08 15:37:43;;;;;;;3.42;1.05;;;;;;;10.48;23.16;102202.09;10182968;28;20038;-67
2021/03/08 15:42:39;;;;;;;5.35;1.50;;;;;;;10.34;23.39;102201.09;10198577;28;20062;-67
2021/03/08 15:47:35;;;;;;;5.10;1.73;;;;;;;9.96;23.85;102206.09;10173404;28;20056;-66
2021/03/08 15:52:31;;;;;;;4.55;1.42;;;;;;;9.45;24.66;102207.81;10189043;28;20144;-66
2021/03/08 15:57:27;;;;;;;6.35;1.75;;;;;;;9.76;23.60;102193.28;10189400;28;20072;-65
2021/03/08 16:02:23;;;;;;;5.30;1.13;;;;;;;9.90;25.98;102200.63;10190763;28;20041;-66
2021/03/08 16:07:19;;;;;;;3.83;1.10;;;;;;;9.43;24.71;102193.59;10189638;28;20049;-66
2021/03/08 16:12:28;;;;;;;8.35;1.52;;;;;;;9.55;25.14;102184.31;10185829;28;20053;-66
2021/03/08 16:17:26;;;;;;;4.13;1.25;;;;;;;8.48;26.05;102188.56;10191586;28;20056;-64
2021/03/08 16:22:23;;;;;;;4.45;1.55;;;;;;;8.86;26.85;102181.03;10197627;28;20056;-64
2021/03/08 16:27:19;;;;;;;4.05;1.30;;;;;;;8.76;28.44;102197.38;10187605;28;20073;-65
2021/03/08 16:32:15;;;;;;;5.10;1.23;;;;;;;8.54;27.52;102192.97;10197192;28;20069;-65
2021/03/08 16:37:11;;;;;;;7.32;1.20;;;;;;;8.42;27.77;102184.19;10193479;28;20045;-65
2021/03/08 16:42:12;;;;;;;3.83;1.20;;;;;;;8.34;27.94;102198.31;10184838;28;20078;-66
2021/03/08 16:47:08;;;;;;;3.22;0.82;;;;;;;8.20;31.39;102185.16;10174686;28;20050;-65
2021/03/08 16:52:04;;;;;;;6.35;1.38;;;;;;;8.05;31.44;102187.81;10177845;28;20046;-65
2021/03/08 16:57:01;;;;;;;3.95;0.98;;;;;;;7.92;34.13;102196.47;10184502;28;20466;-66
2021/03/08 17:01:57;;;;;;;8.32;1.75;;;;;;;7.75;33.01;102186.56;10177108;28;20544;-66
2021/03/08 17:06:54;;;;;;;4.07;1.17;;;;;;;7.58;34.88;102186.72;10177042;28;20073;-64
2021/03/08 17:11:50;;;;;;;7.97;1.40;;;;;;;7.47;35.02;102186.91;10185512;28;20045;-65
2021/03/08 17:16:46;;;;;;;8.05;1.40;;;;;;;7.32;35.06;102182.97;10174520;28;20050;-65
2021/03/08 17:21:42;;;;;;;4.88;1.45;;;;;;;7.26;36.00;102194.91;10185222;28;20621;-65
2021/03/08 17:26:38;;;;;;;4.82;1.35;;;;;;;7.15;35.86;102195.91;10179525;28;20053;-65
2021/03/08 17:31:35;;;;;;;3.53;1.20;;;;;;;6.98;36.90;102195.19;10173056;28;20112;-68
2021/03/08 17:36:32;;;;;;;5.70;1.92;;;;;;;6.91;37.11;102193.50;10174930;28;20065;-67
2021/03/08 17:41:28;;;;;;;4.55;1.25;;;;;;;6.90;35.95;102197.31;10180882;28;20088;-64
2021/03/08 17:46:25;;;;;;;3.75;1.23;;;;;;;6.71;37.03;102198.75;10180489;28;20435;-63
2021/03/08 17:51:22;;;;;;;5.57;1.50;;;;;;;6.67;37.42;102192.97;10167917;28;20432;-66
2021/03/08 17:56:18;;;;;;;5.03;1.50;;;;;;;6.46;35.01;102191.94;10180975;28;20626;-67
2021/03/08 18:01:34;;;;;;;4.28;1.30;;;;;;;6.49;37.27;102185.97;10173173;28;20046;-66
2021/03/08 18:06:30;;;;;;;4.22;1.42;;;;;;;6.43;35.16;102187.00;10173807;28;20120;-66
2021/03/08 18:11:26;;;;;;;4.13;1.65;;;;;;;6.35;36.51;102182.03;10177310;28;20149;-65
2021/03/08 18:16:22;;;;;;;7.13;1.40;;;;;;;6.30;35.56;102176.53;10170470;28;20103;-66
2021/03/08 18:21:21;;;;;;;5.85;1.40;;;;;;;6.23;36.24;102170.47;10175971;28;20133;-69
2021/03/08 18:26:17;;;;;;;4.97;1.85;;;;;;;6.07;36.66;102167.56;10181978;28;20276;-68
2021/03/08 18:31:13;;;;;;;6.28;1.92;;;;;;;6.02;35.99;102164.78;10193129;28;20057;-66
2021/03/08 18:36:09;;;;;;;5.93;1.50;;;;;;;5.88;36.40;102164.28;10184031;28;20042;-65
2021/03/08 18:41:05;;;;;;;5.68;1.73;;;;;;;6.05;37.88;102166.16;10176836;28;20050;-66
2021/03/08 18:46:03;;;;;;;6.05;1.90;;;;;;;6.04;36.92;102167.25;10175388;28;20038;-64
2021/03/08 18:50:59;;;;;;;5.63;2.10;;;;;;;5.92;37.09;102159.19;10174243;28;20116;-65
2021/03/08 18:55:56;;;;;;;4.72;2.03;;;;;;;5.85;36.91;102161.28;10184972;28;20041;-64
2021/03/08 19:00:52;;;;;;;8.10;2.92;;;;;;;5.83;37.52;102166.13;10184323;28;20068;-65
2021/03/08 19:05:48;;;;;;;7.53;2.65;;;;;;;5.84;37.06;102162.31;10179786;28;20046;-65
2021/03/08 19:10:44;;;;;;;6.40;2.33;;;;;;;5.92;37.07;102161.91;10175623;28;20092;-65
2021/03/08 19:15:40;;;;;;;4.90;2.03;;;;;;;5.86;37.68;102166.44;10172290;28;20053;-66
2021/03/08 19:20:36;;;;;;;6.15;2.72;;;;;;;5.92;36.43;102156.47;10169630;28;20487;-67
2021/03/08 19:25:32;;;;;;;7.85;2.40;;;;;;;5.73;38.70;102155.91;10166093;28;20512;-65
2021/03/08 19:30:28;;;;;;;5.53;2.25;;;;;;;5.67;38.21;102152.31;10175771;28;20060;-65
2021/03/08 19:35:24;;;;;;;5.30;1.98;;;;;;;5.60;38.42;102157.13;10180031;28;20049;-66
2021/03/08 19:40:21;;;;;;;5.82;2.10;;;;;;;5.40;38.37;102151.38;10170296;28;20152;-65
2021/03/08 19:45:18;;;;;;;5.60;2.20;;;;;;;5.36;39.44;102161.06;10167424;28;20116;-66
2021/03/08 19:50:18;;;;;;;6.90;2.30;;;;;;;5.36;39.17;102161.91;10165769;28;20243;-66
2021/03/08 19:55:16;;;;;;;6.18;2.75;;;;;;;5.39;38.42;102160.59;10175551;28;20046;-66
2021/03/08 20:00:16;;;;;;;6.25;2.80;;;;;;;5.05;38.54;102155.16;10179968;28;20046;-65
2021/03/08 20:05:13;;;;;;;8.30;2.30;;;;;;;5.08;37.80;102157.38;10185484;28;20053;-65
2021/03/08 20:10:10;;;;;;;6.43;2.58;;;;;;;4.94;38.31;102167.69;10187112;28;20570;-66
2021/03/08 20:15:08;;;;;;;6.82;2.28;;;;;;;5.12;38.43;102161.22;10185304;28;20082;-65
2021/03/08 20:20:10;;;;;;;6.00;1.88;;;;;;;5.03;39.58;102157.28;10179311;28;20558;-65
2021/03/08 20:25:14;;;;;;;7.03;2.20;;;;;;;4.98;40.29;102154.50;10212995;28;20951;-67
2021/03/08 20:30:11;;;;;;;5.10;1.90;;;;;;;4.61;40.90;102160.34;10172491;28;20060;-66
2021/03/08 20:35:08;;;;;;;4.10;1.95;;;;;;;4.76;41.85;102155.22;10181664;28;20123;-67
2021/03/08 20:40:07;;;;;;;5.65;1.90;;;;;;;4.80;41.73;102153.66;10174039;28;20050;-64
2021/03/08 20:45:07;;;;;;;9.15;1.98;;;;;;;4.62;41.33;102151.16;10179906;28;20112;-65
2021/03/08 20:50:05;;;;;;;6.88;2.17;;;;;;;4.67;43.05;102140.41;10199745;28;20049;-65
2021/03/08 20:55:03;;;;;;;6.60;1.75;;;;;;;4.65;43.16;102145.25;10217622;28;20053;-68
2021/03/08 20:59:59;;;;;;;7.63;2.22;;;;;;;4.65;43.14;102139.81;10228583;28;20543;-66
2021/03/08 21:04:55;;;;;;;7.35;2.22;;;;;;;4.53;43.85;102136.38;10213505;28;20739;-69
2021/03/08 21:09:52;;;;;;;6.90;2.35;;;;;;;4.53;43.78;102141.78;10208097;28;20044;-66
2021/03/08 21:14:48;;;;;;;7.03;2.10;;;;;;;4.39;43.65;102147.47;10213910;28;20155;-68
2021/03/08 21:19:44;;;;;;;5.22;2.00;;;;;;;4.51;44.60;102138.50;10206831;28;20042;-66
2021/03/08 21:24:40;;;;;;;9.00;2.50;;;;;;;4.50;44.86;102136.81;10202632;28;20648;-68
2021/03/08 21:29:55;;;;;;;5.93;2.47;;;;;;;4.45;45.21;102134.03;10209271;28;20503;-70
2021/03/08 21:34:51;;;;;;;6.80;2.25;;;;;;;4.44;44.28;102135.91;10216742;28;20060;-67
2021/03/08 21:39:47;;;;;;;8.27;3.55;;;;;;;4.37;44.74;102133.34;10227763;28;20068;-71
2021/03/08 21:44:44;;;;;;;9.43;2.72;;;;;;;4.02;45.82;102129.94;10230531;28;20049;-68
2021/03/08 21:49:40;;;;;;;8.52;2.53;;;;;;;4.09;46.17;102131.44;10233456;28;20406;-69
2021/03/08 21:54:37;;;;;;;7.93;2.28;;;;;;;4.11;46.28;102123.91;10245711;28;20469;-69
2021/03/08 21:59:34;;;;;;;6.38;2.55;;;;;;;4.09;46.56;102126.03;10217710;28;20137;-72
2021/03/08 22:04:30;;;;;;;6.70;2.42;;;;;;;3.84;47.06;102125.50;10233591;28;20085;-68
2021/03/08 22:09:26;;;;;;;7.18;2.60;;;;;;;3.83;46.96;102121.13;10220184;28;20045;-71
2021/03/08 22:14:22;;;;;;;8.43;3.03;;;;;;;3.98;46.90;102119.56;10227866;28;20099;-70
2021/03/08 22:19:18;;;;;;;9.32;2.70;;;;;;;4.08;45.34;102118.13;10217232;28;20064;-69
2021/03/08 22:24:15;;;;;;;9.85;2.63;;;;;;;4.05;48.05;102113.22;10229764;28;20053;-68
2021/03/08 22:29:13;;;;;;;6.32;2.58;;;;;;;3.94;48.08;102102.16;10224057;28;20037;-71
2021/03/08 22:34:09;;;;;;;5.80;2.20;;;;;;;3.96;47.45;102100.03;10229883;28;20426;-65
2021/03/08 22:39:05;;;;;;;6.22;2.78;;;;;;;3.94;47.90;102101.34;10230636;28;20069;-67
2021/03/08 22:44:01;;;;;;;7.28;2.22;;;;;;;3.82;48.87;102098.66;10224193;28;20045;-74
2021/03/08 22:49:00;;;;;;;5.55;2.47;;;;;;;3.87;46.07;102101.47;10221264;28;20149;-68
2021/03/08 22:53:57;;;;;;;7.78;3.00;;;;;;;3.92;46.82;102092.66;10216745;28;20590;-68
2021/03/08 22:58:53;;;;;;;10.50;2.67;;;;;;;3.91;48.10;102091.81;10227290;28;20087;-67
2021/03/08 23:03:53;;;;;;;8.13;2.60;;;;;;;3.71;49.24;102086.00;10214794;28;20056;-67